sensor_id;sensor_type;location;lat;lon;timestamp;P1;durP1;ratioP1;P2;durP2;ratioP2
75787;SDS011;64406;50.024;14.492;2023-05-29T00:00:16;4.15;;;2.22;;
75787;SDS011;64406;50.024;14.492;2023-05-29T00:03:04;5.60;;;2.40;;
75787;SDS011;64406;50.024;14.492;2023-05-29T00:05:30;5.82;;;2.15;;
75787;SDS011;64406;50.024;14.492;2023-05-29T00:07:56;5.55;;;2.75;;
75787;SDS011;64406;50.024;14.492;2023-05-29T00:10:22;5.43;;;2.13;;
75787;SDS011;64406;50.024;14.492;2023-05-29T00:12:47;5.25;;;2.58;;
75787;SDS011;64406;50.024;14.492;2023-05-29T00:15:13;4.93;;;2.22;;
75787;SDS011;64406;50.024;14.492;2023-05-29T00:17:39;4.18;;;2.35;;
75787;SDS011;64406;50.024;14.492;2023-05-29T00:20:05;4.38;;;2.40;;
75787;SDS011;64406;50.024;14.492;2023-05-29T00:22:34;3.83;;;2.33;;
75787;SDS011;64406;50.024;14.492;2023-05-29T00:25:05;8.27;;;3.30;;
75787;SDS011;64406;50.024;14.492;2023-05-29T00:27:33;5.05;;;2.70;;
75787;SDS011;64406;50.024;14.492;2023-05-29T00:29:59;5.28;;;2.67;;
75787;SDS011;64406;50.024;14.492;2023-05-29T00:32:26;5.10;;;2.15;;
75787;SDS011;64406;50.024;14.492;2023-05-29T00:34:53;3.17;;;2.20;;
75787;SDS011;64406;50.024;14.492;2023-05-29T00:37:19;4.85;;;2.10;;
75787;SDS011;64406;50.024;14.492;2023-05-29T00:39:47;4.50;;;2.70;;
75787;SDS011;64406;50.024;14.492;2023-05-29T00:42:13;3.80;;;2.47;;
75787;SDS011;64406;50.024;14.492;2023-05-29T00:44:39;4.43;;;2.53;;
75787;SDS011;64406;50.024;14.492;2023-05-29T00:47:05;3.38;;;2.35;;
75787;SDS011;64406;50.024;14.492;2023-05-29T00:49:31;5.60;;;2.67;;
75787;SDS011;64406;50.024;14.492;2023-05-29T00:51:57;4.35;;;2.53;;
75787;SDS011;64406;50.024;14.492;2023-05-29T00:54:24;6.60;;;2.70;;
75787;SDS011;64406;50.024;14.492;2023-05-29T00:56:52;5.53;;;2.30;;
75787;SDS011;64406;50.024;14.492;2023-05-29T00:59:18;7.03;;;2.88;;
75787;SDS011;64406;50.024;14.492;2023-05-29T01:01:47;6.18;;;3.00;;
75787;SDS011;64406;50.024;14.492;2023-05-29T01:04:16;6.03;;;2.92;;
75787;SDS011;64406;50.024;14.492;2023-05-29T01:06:42;5.15;;;2.80;;
75787;SDS011;64406;50.024;14.492;2023-05-29T01:09:10;5.25;;;2.67;;
75787;SDS011;64406;50.024;14.492;2023-05-29T01:14:47;5.60;;;3.08;;
75787;SDS011;64406;50.024;14.492;2023-05-29T01:17:17;5.30;;;3.05;;
75787;SDS011;64406;50.024;14.492;2023-05-29T01:25:18;5.88;;;3.42;;
75787;SDS011;64406;50.024;14.492;2023-05-29T01:27:48;5.15;;;2.75;;
75787;SDS011;64406;50.024;14.492;2023-05-29T01:30:15;5.65;;;2.85;;
75787;SDS011;64406;50.024;14.492;2023-05-29T01:32:41;9.00;;;4.38;;
75787;SDS011;64406;50.024;14.492;2023-05-29T01:35:08;6.15;;;3.33;;
75787;SDS011;64406;50.024;14.492;2023-05-29T01:37:34;4.80;;;2.92;;
75787;SDS011;64406;50.024;14.492;2023-05-29T01:40:00;7.22;;;3.30;;
75787;SDS011;64406;50.024;14.492;2023-05-29T01:42:26;4.18;;;2.72;;
75787;SDS011;64406;50.024;14.492;2023-05-29T01:44:54;5.20;;;2.90;;
75787;SDS011;64406;50.024;14.492;2023-05-29T01:47:21;5.07;;;2.53;;
75787;SDS011;64406;50.024;14.492;2023-05-29T01:49:49;4.75;;;3.40;;
75787;SDS011;64406;50.024;14.492;2023-05-29T01:52:15;4.95;;;3.13;;
75787;SDS011;64406;50.024;14.492;2023-05-29T01:54:41;4.57;;;3.42;;
75787;SDS011;64406;50.024;14.492;2023-05-29T01:57:07;7.68;;;3.65;;
75787;SDS011;64406;50.024;14.492;2023-05-29T01:59:33;7.38;;;3.25;;
75787;SDS011;64406;50.024;14.492;2023-05-29T02:02:05;10.70;;;3.47;;
75787;SDS011;64406;50.024;14.492;2023-05-29T02:04:31;5.22;;;3.05;;
75787;SDS011;64406;50.024;14.492;2023-05-29T02:06:57;5.28;;;3.00;;
75787;SDS011;64406;50.024;14.492;2023-05-29T02:09:23;8.85;;;3.45;;
75787;SDS011;64406;50.024;14.492;2023-05-29T02:11:49;5.57;;;3.20;;
75787;SDS011;64406;50.024;14.492;2023-05-29T02:14:15;5.88;;;3.78;;
75787;SDS011;64406;50.024;14.492;2023-05-29T02:16:40;5.68;;;3.47;;
75787;SDS011;64406;50.024;14.492;2023-05-29T02:19:06;6.00;;;4.10;;
75787;SDS011;64406;50.024;14.492;2023-05-29T02:21:32;13.05;;;3.60;;
75787;SDS011;64406;50.024;14.492;2023-05-29T02:23:58;8.48;;;3.70;;
75787;SDS011;64406;50.024;14.492;2023-05-29T02:26:24;8.30;;;3.85;;
75787;SDS011;64406;50.024;14.492;2023-05-29T02:28:51;7.70;;;3.92;;
75787;SDS011;64406;50.024;14.492;2023-05-29T02:31:16;10.00;;;3.80;;
75787;SDS011;64406;50.024;14.492;2023-05-29T02:33:43;5.95;;;3.17;;
75787;SDS011;64406;50.024;14.492;2023-05-29T02:36:08;6.35;;;3.20;;
75787;SDS011;64406;50.024;14.492;2023-05-29T02:38:37;6.47;;;3.47;;
75787;SDS011;64406;50.024;14.492;2023-05-29T02:41:02;5.88;;;3.50;;
75787;SDS011;64406;50.024;14.492;2023-05-29T02:43:28;8.60;;;3.60;;
75787;SDS011;64406;50.024;14.492;2023-05-29T02:45:54;8.85;;;4.13;;
75787;SDS011;64406;50.024;14.492;2023-05-29T02:48:19;5.25;;;3.55;;
75787;SDS011;64406;50.024;14.492;2023-05-29T02:50:46;11.63;;;3.65;;
75787;SDS011;64406;50.024;14.492;2023-05-29T02:53:11;6.43;;;3.88;;
75787;SDS011;64406;50.024;14.492;2023-05-29T02:55:37;5.38;;;3.90;;
75787;SDS011;64406;50.024;14.492;2023-05-29T02:58:03;8.52;;;4.47;;
75787;SDS011;64406;50.024;14.492;2023-05-29T03:00:28;8.60;;;4.43;;
75787;SDS011;64406;50.024;14.492;2023-05-29T03:02:57;9.00;;;4.57;;
75787;SDS011;64406;50.024;14.492;2023-05-29T03:05:23;6.15;;;3.70;;
75787;SDS011;64406;50.024;14.492;2023-05-29T03:07:49;7.55;;;4.30;;
75787;SDS011;64406;50.024;14.492;2023-05-29T03:10:15;9.55;;;4.20;;
75787;SDS011;64406;50.024;14.492;2023-05-29T03:12:42;7.82;;;4.35;;
75787;SDS011;64406;50.024;14.492;2023-05-29T03:15:09;6.78;;;4.25;;
75787;SDS011;64406;50.024;14.492;2023-05-29T03:17:35;9.43;;;3.83;;
75787;SDS011;64406;50.024;14.492;2023-05-29T03:20:03;10.15;;;4.03;;
75787;SDS011;64406;50.024;14.492;2023-05-29T03:22:34;6.93;;;4.55;;
75787;SDS011;64406;50.024;14.492;2023-05-29T03:25:01;5.63;;;4.03;;
75787;SDS011;64406;50.024;14.492;2023-05-29T03:27:28;8.38;;;4.43;;
75787;SDS011;64406;50.024;14.492;2023-05-29T03:29:55;8.38;;;4.03;;
75787;SDS011;64406;50.024;14.492;2023-05-29T03:32:20;7.75;;;4.50;;
75787;SDS011;64406;50.024;14.492;2023-05-29T03:34:46;9.48;;;4.47;;
75787;SDS011;64406;50.024;14.492;2023-05-29T03:37:16;10.35;;;4.40;;
75787;SDS011;64406;50.024;14.492;2023-05-29T03:39:41;9.93;;;4.90;;
75787;SDS011;64406;50.024;14.492;2023-05-29T03:42:07;7.15;;;4.47;;
75787;SDS011;64406;50.024;14.492;2023-05-29T03:44:33;10.55;;;4.32;;
75787;SDS011;64406;50.024;14.492;2023-05-29T03:46:59;7.28;;;4.55;;
75787;SDS011;64406;50.024;14.492;2023-05-29T03:49:24;7.07;;;4.70;;
75787;SDS011;64406;50.024;14.492;2023-05-29T03:51:50;7.97;;;4.35;;
75787;SDS011;64406;50.024;14.492;2023-05-29T03:54:16;9.93;;;4.32;;
75787;SDS011;64406;50.024;14.492;2023-05-29T03:56:42;6.50;;;4.03;;
75787;SDS011;64406;50.024;14.492;2023-05-29T03:59:08;9.02;;;4.28;;
75787;SDS011;64406;50.024;14.492;2023-05-29T04:01:33;5.03;;;3.50;;
75787;SDS011;64406;50.024;14.492;2023-05-29T04:03:59;11.90;;;4.28;;
75787;SDS011;64406;50.024;14.492;2023-05-29T04:06:25;11.07;;;4.45;;
75787;SDS011;64406;50.024;14.492;2023-05-29T04:08:51;7.13;;;4.15;;
75787;SDS011;64406;50.024;14.492;2023-05-29T04:11:17;7.55;;;3.85;;
75787;SDS011;64406;50.024;14.492;2023-05-29T04:13:46;8.20;;;4.13;;
75787;SDS011;64406;50.024;14.492;2023-05-29T04:16:13;9.45;;;4.00;;
75787;SDS011;64406;50.024;14.492;2023-05-29T04:18:40;7.78;;;4.28;;
75787;SDS011;64406;50.024;14.492;2023-05-29T04:21:06;8.57;;;4.45;;
75787;SDS011;64406;50.024;14.492;2023-05-29T04:23:32;9.07;;;4.70;;
75787;SDS011;64406;50.024;14.492;2023-05-29T04:25:58;9.40;;;4.47;;
75787;SDS011;64406;50.024;14.492;2023-05-29T04:28:26;14.27;;;4.88;;
75787;SDS011;64406;50.024;14.492;2023-05-29T04:30:52;9.40;;;4.25;;
75787;SDS011;64406;50.024;14.492;2023-05-29T04:33:18;10.10;;;4.47;;
75787;SDS011;64406;50.024;14.492;2023-05-29T04:35:46;7.82;;;4.32;;
75787;SDS011;64406;50.024;14.492;2023-05-29T04:38:13;10.65;;;4.25;;
75787;SDS011;64406;50.024;14.492;2023-05-29T04:40:39;7.97;;;4.28;;
75787;SDS011;64406;50.024;14.492;2023-05-29T04:43:05;8.20;;;4.40;;
75787;SDS011;64406;50.024;14.492;2023-05-29T04:45:32;9.57;;;4.40;;
75787;SDS011;64406;50.024;14.492;2023-05-29T04:47:57;6.45;;;4.00;;
75787;SDS011;64406;50.024;14.492;2023-05-29T04:50:24;7.43;;;3.72;;
75787;SDS011;64406;50.024;14.492;2023-05-29T04:52:49;6.38;;;3.83;;
75787;SDS011;64406;50.024;14.492;2023-05-29T04:55:15;6.80;;;4.75;;
75787;SDS011;64406;50.024;14.492;2023-05-29T04:57:41;7.80;;;4.65;;
75787;SDS011;64406;50.024;14.492;2023-05-29T05:00:07;9.65;;;4.65;;
75787;SDS011;64406;50.024;14.492;2023-05-29T05:02:41;8.25;;;4.28;;
75787;SDS011;64406;50.024;14.492;2023-05-29T05:05:08;7.25;;;4.35;;
75787;SDS011;64406;50.024;14.492;2023-05-29T05:07:34;9.07;;;4.55;;
75787;SDS011;64406;50.024;14.492;2023-05-29T05:10:00;7.57;;;3.63;;
75787;SDS011;64406;50.024;14.492;2023-05-29T05:12:26;6.18;;;3.92;;
75787;SDS011;64406;50.024;14.492;2023-05-29T05:14:52;10.18;;;4.32;;
75787;SDS011;64406;50.024;14.492;2023-05-29T05:17:18;7.85;;;3.80;;
75787;SDS011;64406;50.024;14.492;2023-05-29T05:19:44;7.55;;;3.92;;
75787;SDS011;64406;50.024;14.492;2023-05-29T05:22:10;9.55;;;4.38;;
75787;SDS011;64406;50.024;14.492;2023-05-29T05:24:36;6.45;;;3.95;;
75787;SDS011;64406;50.024;14.492;2023-05-29T05:27:01;8.68;;;3.75;;
75787;SDS011;64406;50.024;14.492;2023-05-29T05:29:27;9.60;;;3.80;;
75787;SDS011;64406;50.024;14.492;2023-05-29T05:31:53;10.32;;;3.83;;
75787;SDS011;64406;50.024;14.492;2023-05-29T05:34:18;6.50;;;3.67;;
75787;SDS011;64406;50.024;14.492;2023-05-29T05:36:44;5.38;;;3.22;;
75787;SDS011;64406;50.024;14.492;2023-05-29T05:39:10;10.18;;;3.60;;
75787;SDS011;64406;50.024;14.492;2023-05-29T05:41:36;10.85;;;3.63;;
75787;SDS011;64406;50.024;14.492;2023-05-29T05:44:02;7.88;;;3.22;;
75787;SDS011;64406;50.024;14.492;2023-05-29T05:46:27;10.93;;;3.33;;
75787;SDS011;64406;50.024;14.492;2023-05-29T05:48:53;7.20;;;3.42;;
75787;SDS011;64406;50.024;14.492;2023-05-29T05:51:22;7.45;;;4.43;;
75787;SDS011;64406;50.024;14.492;2023-05-29T05:53:48;9.38;;;3.53;;
75787;SDS011;64406;50.024;14.492;2023-05-29T05:56:14;10.48;;;3.20;;
75787;SDS011;64406;50.024;14.492;2023-05-29T05:58:40;6.22;;;3.42;;
75787;SDS011;64406;50.024;14.492;2023-05-29T06:01:07;4.90;;;3.20;;
75787;SDS011;64406;50.024;14.492;2023-05-29T06:03:33;7.88;;;3.97;;
75787;SDS011;64406;50.024;14.492;2023-05-29T06:06:00;5.90;;;3.53;;
75787;SDS011;64406;50.024;14.492;2023-05-29T06:08:26;6.68;;;3.50;;
75787;SDS011;64406;50.024;14.492;2023-05-29T06:10:52;6.65;;;2.90;;
75787;SDS011;64406;50.024;14.492;2023-05-29T06:13:18;4.32;;;2.95;;
75787;SDS011;64406;50.024;14.492;2023-05-29T06:15:43;7.07;;;3.22;;
75787;SDS011;64406;50.024;14.492;2023-05-29T06:18:09;10.20;;;3.40;;
75787;SDS011;64406;50.024;14.492;2023-05-29T06:20:39;5.97;;;3.33;;
75787;SDS011;64406;50.024;14.492;2023-05-29T06:23:05;8.10;;;3.08;;
75787;SDS011;64406;50.024;14.492;2023-05-29T06:25:31;6.22;;;3.17;;
75787;SDS011;64406;50.024;14.492;2023-05-29T06:28:00;5.00;;;2.67;;
75787;SDS011;64406;50.024;14.492;2023-05-29T06:30:26;7.75;;;3.40;;
75787;SDS011;64406;50.024;14.492;2023-05-29T06:32:52;7.88;;;3.30;;
75787;SDS011;64406;50.024;14.492;2023-05-29T06:35:18;5.82;;;3.13;;
75787;SDS011;64406;50.024;14.492;2023-05-29T06:37:46;5.80;;;2.72;;
75787;SDS011;64406;50.024;14.492;2023-05-29T06:40:15;7.63;;;3.28;;
75787;SDS011;64406;50.024;14.492;2023-05-29T06:42:43;6.82;;;2.67;;
75787;SDS011;64406;50.024;14.492;2023-05-29T06:45:10;7.38;;;3.05;;
75787;SDS011;64406;50.024;14.492;2023-05-29T06:47:39;4.53;;;2.63;;
75787;SDS011;64406;50.024;14.492;2023-05-29T06:50:06;4.97;;;2.60;;
75787;SDS011;64406;50.024;14.492;2023-05-29T06:52:33;5.15;;;2.05;;
75787;SDS011;64406;50.024;14.492;2023-05-29T06:54:58;3.72;;;2.10;;
75787;SDS011;64406;50.024;14.492;2023-05-29T06:57:24;4.53;;;1.98;;
75787;SDS011;64406;50.024;14.492;2023-05-29T06:59:50;5.30;;;2.47;;
75787;SDS011;64406;50.024;14.492;2023-05-29T07:02:16;6.05;;;2.25;;
75787;SDS011;64406;50.024;14.492;2023-05-29T07:04:44;4.82;;;1.92;;
75787;SDS011;64406;50.024;14.492;2023-05-29T07:07:10;4.80;;;2.67;;
75787;SDS011;64406;50.024;14.492;2023-05-29T07:09:36;5.40;;;2.40;;
75787;SDS011;64406;50.024;14.492;2023-05-29T07:12:02;3.70;;;1.88;;
75787;SDS011;64406;50.024;14.492;2023-05-29T07:14:28;4.32;;;1.88;;
75787;SDS011;64406;50.024;14.492;2023-05-29T07:16:54;2.42;;;1.70;;
75787;SDS011;64406;50.024;14.492;2023-05-29T07:19:19;8.80;;;2.40;;
75787;SDS011;64406;50.024;14.492;2023-05-29T07:21:45;2.78;;;1.70;;
75787;SDS011;64406;50.024;14.492;2023-05-29T07:24:11;4.53;;;2.53;;
75787;SDS011;64406;50.024;14.492;2023-05-29T07:26:37;6.95;;;2.42;;
75787;SDS011;64406;50.024;14.492;2023-05-29T07:29:03;2.65;;;1.85;;
75787;SDS011;64406;50.024;14.492;2023-05-29T07:31:28;7.10;;;1.80;;
75787;SDS011;64406;50.024;14.492;2023-05-29T07:33:54;6.93;;;2.47;;
75787;SDS011;64406;50.024;14.492;2023-05-29T07:36:20;4.70;;;2.17;;
75787;SDS011;64406;50.024;14.492;2023-05-29T07:38:46;4.07;;;2.17;;
75787;SDS011;64406;50.024;14.492;2023-05-29T07:41:12;4.40;;;2.25;;
75787;SDS011;64406;50.024;14.492;2023-05-29T07:43:41;3.53;;;2.35;;
75787;SDS011;64406;50.024;14.492;2023-05-29T07:46:07;4.07;;;2.25;;
75787;SDS011;64406;50.024;14.492;2023-05-29T07:48:33;3.55;;;2.25;;
75787;SDS011;64406;50.024;14.492;2023-05-29T07:51:00;6.63;;;2.35;;
75787;SDS011;64406;50.024;14.492;2023-05-29T07:53:38;6.72;;;2.47;;
75787;SDS011;64406;50.024;14.492;2023-05-29T07:56:04;9.98;;;3.10;;
75787;SDS011;64406;50.024;14.492;2023-05-29T07:58:33;11.82;;;2.95;;
75787;SDS011;64406;50.024;14.492;2023-05-29T08:01:07;5.72;;;2.30;;
75787;SDS011;64406;50.024;14.492;2023-05-29T08:03:33;4.82;;;2.30;;
75787;SDS011;64406;50.024;14.492;2023-05-29T08:05:59;4.20;;;1.55;;
75787;SDS011;64406;50.024;14.492;2023-05-29T08:08:25;4.75;;;2.33;;
75787;SDS011;64406;50.024;14.492;2023-05-29T08:10:51;5.10;;;2.55;;
75787;SDS011;64406;50.024;14.492;2023-05-29T08:13:16;6.20;;;2.15;;
75787;SDS011;64406;50.024;14.492;2023-05-29T08:15:42;4.72;;;2.20;;
75787;SDS011;64406;50.024;14.492;2023-05-29T08:18:08;4.38;;;2.20;;
75787;SDS011;64406;50.024;14.492;2023-05-29T08:20:34;6.80;;;2.30;;
75787;SDS011;64406;50.024;14.492;2023-05-29T08:23:00;4.55;;;2.30;;
75787;SDS011;64406;50.024;14.492;2023-05-29T08:25:26;6.30;;;2.03;;
75787;SDS011;64406;50.024;14.492;2023-05-29T08:27:52;3.45;;;1.70;;
75787;SDS011;64406;50.024;14.492;2023-05-29T08:30:17;3.83;;;1.60;;
75787;SDS011;64406;50.024;14.492;2023-05-29T08:32:44;2.40;;;1.75;;
75787;SDS011;64406;50.024;14.492;2023-05-29T08:35:10;3.53;;;1.67;;
75787;SDS011;64406;50.024;14.492;2023-05-29T08:37:36;6.50;;;2.10;;
75787;SDS011;64406;50.024;14.492;2023-05-29T08:40:03;4.32;;;2.00;;
75787;SDS011;64406;50.024;14.492;2023-05-29T08:43:21;11.07;;;2.65;;
75787;SDS011;64406;50.024;14.492;2023-05-29T08:45:28;5.78;;;1.60;;
75787;SDS011;64406;50.024;14.492;2023-05-29T08:47:59;5.38;;;2.35;;
75787;SDS011;64406;50.024;14.492;2023-05-29T08:50:26;7.15;;;2.05;;
75787;SDS011;64406;50.024;14.492;2023-05-29T08:52:52;7.53;;;2.17;;
75787;SDS011;64406;50.024;14.492;2023-05-29T08:55:27;8.77;;;2.33;;
75787;SDS011;64406;50.024;14.492;2023-05-29T08:57:54;5.07;;;1.90;;
75787;SDS011;64406;50.024;14.492;2023-05-29T09:00:21;3.47;;;1.90;;
75787;SDS011;64406;50.024;14.492;2023-05-29T09:02:48;3.67;;;2.10;;
75787;SDS011;64406;50.024;14.492;2023-05-29T09:05:14;2.65;;;1.60;;
75787;SDS011;64406;50.024;14.492;2023-05-29T09:07:40;2.83;;;1.85;;
75787;SDS011;64406;50.024;14.492;2023-05-29T09:10:06;6.72;;;2.00;;
75787;SDS011;64406;50.024;14.492;2023-05-29T09:12:33;4.65;;;1.45;;
75787;SDS011;64406;50.024;14.492;2023-05-29T09:15:00;3.15;;;1.75;;
75787;SDS011;64406;50.024;14.492;2023-05-29T09:17:30;4.63;;;2.08;;
75787;SDS011;64406;50.024;14.492;2023-05-29T09:20:00;4.05;;;1.80;;
75787;SDS011;64406;50.024;14.492;2023-05-29T09:22:33;3.65;;;1.55;;
75787;SDS011;64406;50.024;14.492;2023-05-29T09:25:02;4.75;;;1.95;;
75787;SDS011;64406;50.024;14.492;2023-05-29T09:27:29;3.95;;;1.80;;
75787;SDS011;64406;50.024;14.492;2023-05-29T09:29:55;6.30;;;2.13;;
75787;SDS011;64406;50.024;14.492;2023-05-29T09:32:20;5.25;;;1.70;;
75787;SDS011;64406;50.024;14.492;2023-05-29T09:34:47;3.00;;;1.90;;
75787;SDS011;64406;50.024;14.492;2023-05-29T09:37:13;2.97;;;1.60;;
75787;SDS011;64406;50.024;14.492;2023-05-29T09:42:12;6.33;;;1.93;;
75787;SDS011;64406;50.024;14.492;2023-05-29T09:44:40;5.47;;;2.38;;
75787;SDS011;64406;50.024;14.492;2023-05-29T09:47:06;3.33;;;2.00;;
75787;SDS011;64406;50.024;14.492;2023-05-29T09:49:33;2.85;;;1.70;;
75787;SDS011;64406;50.024;14.492;2023-05-29T09:51:59;5.43;;;2.10;;
75787;SDS011;64406;50.024;14.492;2023-05-29T09:56:58;8.93;;;2.33;;
75787;SDS011;64406;50.024;14.492;2023-05-29T09:59:24;5.47;;;1.90;;
75787;SDS011;64406;50.024;14.492;2023-05-29T10:01:55;3.85;;;1.90;;
75787;SDS011;64406;50.024;14.492;2023-05-29T10:04:33;4.22;;;2.00;;
75787;SDS011;64406;50.024;14.492;2023-05-29T10:07:07;5.97;;;2.30;;
75787;SDS011;64406;50.024;14.492;2023-05-29T10:09:41;2.80;;;1.75;;
75787;SDS011;64406;50.024;14.492;2023-05-29T10:12:10;6.38;;;2.42;;
75787;SDS011;64406;50.024;14.492;2023-05-29T10:14:37;7.18;;;2.33;;
75787;SDS011;64406;50.024;14.492;2023-05-29T10:17:08;3.55;;;1.75;;
75787;SDS011;64406;50.024;14.492;2023-05-29T10:19:37;3.42;;;1.85;;
75787;SDS011;64406;50.024;14.492;2023-05-29T10:22:04;5.47;;;2.42;;
75787;SDS011;64406;50.024;14.492;2023-05-29T10:24:33;4.70;;;2.13;;
75787;SDS011;64406;50.024;14.492;2023-05-29T10:27:02;3.22;;;2.25;;
75787;SDS011;64406;50.024;14.492;2023-05-29T10:29:36;3.17;;;1.98;;
75787;SDS011;64406;50.024;14.492;2023-05-29T10:35:20;6.55;;;2.03;;
75787;SDS011;64406;50.024;14.492;2023-05-29T10:37:51;3.60;;;2.30;;
75787;SDS011;64406;50.024;14.492;2023-05-29T10:40:24;6.22;;;2.58;;
75787;SDS011;64406;50.024;14.492;2023-05-29T10:42:51;2.90;;;1.98;;
75787;SDS011;64406;50.024;14.492;2023-05-29T10:50:38;5.40;;;2.28;;
75787;SDS011;64406;50.024;14.492;2023-05-29T10:53:15;2.92;;;1.83;;
75787;SDS011;64406;50.024;14.492;2023-05-29T10:55:44;4.25;;;2.00;;
75787;SDS011;64406;50.024;14.492;2023-05-29T10:58:12;3.65;;;1.98;;
75787;SDS011;64406;50.024;14.492;2023-05-29T11:00:41;3.03;;;2.20;;
75787;SDS011;64406;50.024;14.492;2023-05-29T11:03:08;6.25;;;2.53;;
75787;SDS011;64406;50.024;14.492;2023-05-29T11:05:34;6.28;;;2.00;;
75787;SDS011;64406;50.024;14.492;2023-05-29T11:08:01;2.47;;;1.80;;
75787;SDS011;64406;50.024;14.492;2023-05-29T11:13:36;6.47;;;2.28;;
75787;SDS011;64406;50.024;14.492;2023-05-29T11:16:12;2.67;;;1.80;;
75787;SDS011;64406;50.024;14.492;2023-05-29T11:18:44;4.13;;;2.33;;
75787;SDS011;64406;50.024;14.492;2023-05-29T11:24:27;6.50;;;1.95;;
75787;SDS011;64406;50.024;14.492;2023-05-29T11:26:55;4.35;;;2.50;;
75787;SDS011;64406;50.024;14.492;2023-05-29T11:29:22;2.50;;;1.98;;
75787;SDS011;64406;50.024;14.492;2023-05-29T11:31:49;2.67;;;2.15;;
75787;SDS011;64406;50.024;14.492;2023-05-29T11:34:23;5.43;;;1.98;;
75787;SDS011;64406;50.024;14.492;2023-05-29T11:36:51;3.17;;;2.03;;
75787;SDS011;64406;50.024;14.492;2023-05-29T11:39:16;2.47;;;1.80;;
75787;SDS011;64406;50.024;14.492;2023-05-29T11:41:42;5.43;;;1.73;;
75787;SDS011;64406;50.024;14.492;2023-05-29T11:44:08;8.88;;;2.00;;
75787;SDS011;64406;50.024;14.492;2023-05-29T11:46:34;5.03;;;1.83;;
75787;SDS011;64406;50.024;14.492;2023-05-29T11:49:00;2.83;;;1.75;;
75787;SDS011;64406;50.024;14.492;2023-05-29T11:51:26;3.40;;;2.10;;
75787;SDS011;64406;50.024;14.492;2023-05-29T11:53:57;6.50;;;2.42;;
75787;SDS011;64406;50.024;14.492;2023-05-29T11:56:50;4.72;;;1.98;;
75787;SDS011;64406;50.024;14.492;2023-05-29T11:59:18;3.05;;;1.60;;
75787;SDS011;64406;50.024;14.492;2023-05-29T12:01:43;3.60;;;1.70;;
75787;SDS011;64406;50.024;14.492;2023-05-29T12:04:15;4.28;;;2.20;;
75787;SDS011;64406;50.024;14.492;2023-05-29T12:06:41;4.22;;;2.05;;
75787;SDS011;64406;50.024;14.492;2023-05-29T12:09:08;2.65;;;1.40;;
75787;SDS011;64406;50.024;14.492;2023-05-29T12:11:34;3.08;;;1.77;;
75787;SDS011;64406;50.024;14.492;2023-05-29T12:14:00;4.30;;;1.70;;
75787;SDS011;64406;50.024;14.492;2023-05-29T12:16:27;4.32;;;2.17;;
75787;SDS011;64406;50.024;14.492;2023-05-29T12:18:55;2.20;;;1.80;;
75787;SDS011;64406;50.024;14.492;2023-05-29T12:21:21;3.42;;;2.05;;
75787;SDS011;64406;50.024;14.492;2023-05-29T12:23:52;3.45;;;1.70;;
75787;SDS011;64406;50.024;14.492;2023-05-29T12:26:22;4.78;;;1.70;;
75787;SDS011;64406;50.024;14.492;2023-05-29T12:28:51;3.42;;;2.00;;
75787;SDS011;64406;50.024;14.492;2023-05-29T12:31:29;3.22;;;1.88;;
75787;SDS011;64406;50.024;14.492;2023-05-29T12:34:00;5.30;;;2.38;;
75787;SDS011;64406;50.024;14.492;2023-05-29T12:36:26;3.95;;;1.95;;
75787;SDS011;64406;50.024;14.492;2023-05-29T12:38:53;4.35;;;1.85;;
75787;SDS011;64406;50.024;14.492;2023-05-29T12:41:25;4.35;;;2.17;;
75787;SDS011;64406;50.024;14.492;2023-05-29T12:43:53;6.97;;;2.45;;
75787;SDS011;64406;50.024;14.492;2023-05-29T12:46:26;7.05;;;1.85;;
75787;SDS011;64406;50.024;14.492;2023-05-29T12:48:54;6.22;;;1.88;;
75787;SDS011;64406;50.024;14.492;2023-05-29T12:51:23;6.72;;;2.25;;
75787;SDS011;64406;50.024;14.492;2023-05-29T12:53:50;4.20;;;2.40;;
75787;SDS011;64406;50.024;14.492;2023-05-29T12:56:16;4.07;;;2.15;;
75787;SDS011;64406;50.024;14.492;2023-05-29T12:58:42;4.90;;;2.08;;
75787;SDS011;64406;50.024;14.492;2023-05-29T13:01:12;3.88;;;2.60;;
75787;SDS011;64406;50.024;14.492;2023-05-29T13:03:39;3.03;;;2.33;;
75787;SDS011;64406;50.024;14.492;2023-05-29T13:06:04;5.32;;;2.10;;
75787;SDS011;64406;50.024;14.492;2023-05-29T13:08:31;4.47;;;2.67;;
75787;SDS011;64406;50.024;14.492;2023-05-29T13:10:58;3.42;;;2.50;;
75787;SDS011;64406;50.024;14.492;2023-05-29T13:13:24;2.75;;;2.00;;
75787;SDS011;64406;50.024;14.492;2023-05-29T13:15:49;2.83;;;2.08;;
75787;SDS011;64406;50.024;14.492;2023-05-29T13:18:15;5.28;;;2.40;;
75787;SDS011;64406;50.024;14.492;2023-05-29T13:20:41;3.20;;;2.33;;
75787;SDS011;64406;50.024;14.492;2023-05-29T13:23:06;5.47;;;2.47;;
75787;SDS011;64406;50.024;14.492;2023-05-29T13:25:34;5.35;;;2.67;;
75787;SDS011;64406;50.024;14.492;2023-05-29T13:28:00;3.70;;;2.40;;
75787;SDS011;64406;50.024;14.492;2023-05-29T13:30:26;2.55;;;2.35;;
75787;SDS011;64406;50.024;14.492;2023-05-29T13:32:52;2.75;;;2.50;;
75787;SDS011;64406;50.024;14.492;2023-05-29T13:35:18;5.22;;;2.40;;
75787;SDS011;64406;50.024;14.492;2023-05-29T13:37:44;3.00;;;2.30;;
75787;SDS011;64406;50.024;14.492;2023-05-29T13:40:09;3.67;;;2.92;;
75787;SDS011;64406;50.024;14.492;2023-05-29T13:42:35;3.92;;;2.47;;
75787;SDS011;64406;50.024;14.492;2023-05-29T13:45:01;6.60;;;2.45;;
75787;SDS011;64406;50.024;14.492;2023-05-29T13:47:27;3.92;;;2.70;;
75787;SDS011;64406;50.024;14.492;2023-05-29T13:49:56;2.92;;;2.17;;
75787;SDS011;64406;50.024;14.492;2023-05-29T13:52:22;5.60;;;2.53;;
75787;SDS011;64406;50.024;14.492;2023-05-29T13:54:47;3.15;;;2.22;;
75787;SDS011;64406;50.024;14.492;2023-05-29T13:57:13;3.15;;;2.45;;
75787;SDS011;64406;50.024;14.492;2023-05-29T13:59:39;2.63;;;2.40;;
75787;SDS011;64406;50.024;14.492;2023-05-29T14:02:04;2.60;;;2.40;;
75787;SDS011;64406;50.024;14.492;2023-05-29T14:04:31;9.10;;;2.50;;
75787;SDS011;64406;50.024;14.492;2023-05-29T14:06:57;3.97;;;2.75;;
75787;SDS011;64406;50.024;14.492;2023-05-29T14:09:23;3.00;;;2.70;;
75787;SDS011;64406;50.024;14.492;2023-05-29T14:14:22;3.33;;;2.33;;
75787;SDS011;64406;50.024;14.492;2023-05-29T14:16:49;4.38;;;2.40;;
75787;SDS011;64406;50.024;14.492;2023-05-29T14:19:15;8.02;;;2.60;;
75787;SDS011;64406;50.024;14.492;2023-05-29T14:21:41;3.25;;;2.28;;
75787;SDS011;64406;50.024;14.492;2023-05-29T14:24:07;3.90;;;2.63;;
75787;SDS011;64406;50.024;14.492;2023-05-29T14:26:33;2.70;;;2.50;;
75787;SDS011;64406;50.024;14.492;2023-05-29T14:28:58;3.30;;;2.60;;
75787;SDS011;64406;50.024;14.492;2023-05-29T14:31:24;4.82;;;2.40;;
75787;SDS011;64406;50.024;14.492;2023-05-29T14:33:50;3.90;;;2.80;;
75787;SDS011;64406;50.024;14.492;2023-05-29T14:36:15;3.55;;;2.58;;
75787;SDS011;64406;50.024;14.492;2023-05-29T14:38:41;4.70;;;2.70;;
75787;SDS011;64406;50.024;14.492;2023-05-29T14:41:08;3.80;;;2.50;;
75787;SDS011;64406;50.024;14.492;2023-05-29T14:43:33;4.53;;;2.30;;
75787;SDS011;64406;50.024;14.492;2023-05-29T14:45:59;4.38;;;2.47;;
75787;SDS011;64406;50.024;14.492;2023-05-29T14:48:25;4.30;;;2.22;;
75787;SDS011;64406;50.024;14.492;2023-05-29T14:50:50;2.42;;;2.22;;
75787;SDS011;64406;50.024;14.492;2023-05-29T14:53:16;6.20;;;2.15;;
75787;SDS011;64406;50.024;14.492;2023-05-29T14:55:42;3.88;;;2.60;;
75787;SDS011;64406;50.024;14.492;2023-05-29T14:58:07;2.70;;;2.30;;
75787;SDS011;64406;50.024;14.492;2023-05-29T15:00:33;4.60;;;2.83;;
75787;SDS011;64406;50.024;14.492;2023-05-29T15:02:59;5.50;;;2.67;;